Westfield, Pennsylvania
Current Conditions -  °F | °C
As of 11:55 AM on Thursday 30 Oct 2014 (Local Time) from KN38 Reporting Station
Overcast Overcast  
Wind Chill: 40°   Ceiling: 2500
Heat Index: 43°   Visibility: 9mi
Dew Point: 34°   Wind: 5mph
Humidity: 70%   Direction: 300°WNW
Pressure: 30.06"   Gusts: 12mph
Location:  41.92°N, 77.54°W
Report Text: KN38 301555Z AUTO 30004G10KT 9SM OVC025 06/01 A3006 RMK AO2
Loading
Personal Weather Stations






























Interactive Weather Map
Tropical Storm Tracking
New forecast layout! Learn more

10-Day Weather Forecast

Advertisements
Track Severe Weather on mobile